createdAt,value
2022-07-31T00:00:55.471Z,17.29
2022-07-31T00:04:07.314Z,17.25
2022-07-31T00:07:19.136Z,17.27
2022-07-31T00:10:31.234Z,17.26
2022-07-31T00:13:57.994Z,17.22
2022-07-31T00:16:57.522Z,17.20
2022-07-31T00:20:13.442Z,17.22
2022-07-31T00:23:25.227Z,17.24
2022-07-31T00:26:37.858Z,17.28
2022-07-31T00:29:49.537Z,17.24
2022-07-31T00:33:01.210Z,17.21
2022-07-31T00:36:13.843Z,17.20
2022-07-31T00:39:25.523Z,17.24
2022-07-31T00:42:37.394Z,17.26
2022-07-31T00:45:58.957Z,17.22
2022-07-31T00:49:03.073Z,17.25
2022-07-31T00:52:14.973Z,17.22
2022-07-31T00:55:26.718Z,17.28
2022-07-31T00:58:38.617Z,17.17
2022-07-31T01:01:50.486Z,17.17
2022-07-31T01:05:02.072Z,17.17
2022-07-31T01:08:14.112Z,17.19
2022-07-31T01:11:32.773Z,17.18
2022-07-31T01:14:50.868Z,17.20
2022-07-31T01:18:04.385Z,17.17
2022-07-31T01:21:20.915Z,17.14
2022-07-31T01:24:52.521Z,17.15
2022-07-31T01:28:15.225Z,17.18
2022-07-31T01:31:32.377Z,17.19
2022-07-31T01:34:50.462Z,17.19
2022-07-31T01:38:08.335Z,17.16
2022-07-31T01:41:25.149Z,17.16
2022-07-31T01:44:42.375Z,17.16
2022-07-31T01:47:56.427Z,17.16
2022-07-31T01:51:11.600Z,17.16
2022-07-31T01:54:25.814Z,17.13
2022-07-31T01:57:40.979Z,17.16
2022-07-31T02:00:54.685Z,17.13
2022-07-31T02:04:10.389Z,17.13
2022-07-31T02:07:23.991Z,17.12
2022-07-31T02:10:37.536Z,17.10
2022-07-31T02:13:50.449Z,17.07
2022-07-31T02:17:03.298Z,17.15
2022-07-31T02:20:25.175Z,17.10
2022-07-31T02:23:41.152Z,17.09
2022-07-31T02:26:54.490Z,17.05
2022-07-31T02:30:09.320Z,17.08
2022-07-31T02:33:24.548Z,17.06
2022-07-31T02:36:38.909Z,17.09
2022-07-31T02:39:52.397Z,17.09
2022-07-31T02:43:04.445Z,17.07
2022-07-31T02:46:19.716Z,17.08
2022-07-31T02:49:31.771Z,17.09
2022-07-31T02:52:44.895Z,17.12
2022-07-31T02:55:58.425Z,17.09
2022-07-31T02:59:11.390Z,17.08
2022-07-31T03:02:36.917Z,17.11
2022-07-31T03:05:39.710Z,17.08
2022-07-31T03:08:51.776Z,17.06
2022-07-31T03:12:05.769Z,17.05
2022-07-31T03:15:23.727Z,16.99
2022-07-31T03:18:37.294Z,16.93
2022-07-31T03:21:49.450Z,16.96
2022-07-31T03:25:01.282Z,16.91
2022-07-31T03:28:13.304Z,16.91
2022-07-31T03:31:25.492Z,16.92
2022-07-31T03:34:37.544Z,16.89
2022-07-31T03:37:49.577Z,16.95
2022-07-31T03:41:01.766Z,16.93
2022-07-31T03:44:14.296Z,16.97
2022-07-31T03:47:26.236Z,16.91
2022-07-31T03:50:38.327Z,16.90
2022-07-31T03:53:52.213Z,16.94
2022-07-31T03:57:26.995Z,16.93
2022-07-31T04:00:39.636Z,16.94
2022-07-31T04:03:52.625Z,16.94
2022-07-31T04:07:06.289Z,16.98
2022-07-31T04:10:18.894Z,16.95
2022-07-31T04:13:30.562Z,16.94
2022-07-31T04:16:42.254Z,16.92
2022-07-31T04:19:54.624Z,16.97
2022-07-31T04:23:07.309Z,16.99
2022-07-31T04:26:34.175Z,17.03
2022-07-31T04:29:49.212Z,17.11
2022-07-31T04:33:00.949Z,17.12
2022-07-31T04:36:29.446Z,17.14
2022-07-31T04:39:26.950Z,17.11
2022-07-31T04:42:40.395Z,17.11
2022-07-31T04:45:54.979Z,17.17
2022-07-31T04:49:06.792Z,17.24
2022-07-31T04:52:19.097Z,17.25
2022-07-31T04:55:32.715Z,17.20
2022-07-31T04:58:44.331Z,17.28
2022-07-31T05:01:57.578Z,17.25
2022-07-31T05:05:16.629Z,17.24
2022-07-31T05:08:28.200Z,17.19
2022-07-31T05:11:41.165Z,17.11
2022-07-31T05:14:53.631Z,17.08
2022-07-31T05:18:07.674Z,17.04
2022-07-31T05:21:30.746Z,17.02
2022-07-31T05:25:00.975Z,16.94
2022-07-31T05:28:13.387Z,16.83
2022-07-31T05:31:26.852Z,16.82
2022-07-31T05:34:38.769Z,16.89
2022-07-31T05:37:50.518Z,16.80
2022-07-31T05:41:04.189Z,16.83
2022-07-31T05:44:23.242Z,16.82
2022-07-31T05:47:40.498Z,16.70
2022-07-31T05:50:51.674Z,16.70
2022-07-31T05:54:03.561Z,16.71
2022-07-31T05:57:34.653Z,16.69
2022-07-31T06:00:52.450Z,16.72
2022-07-31T06:04:06.688Z,16.65
2022-07-31T06:07:20.301Z,16.67
2022-07-31T06:10:32.889Z,16.80
2022-07-31T06:13:45.633Z,16.80
2022-07-31T06:17:00.023Z,16.93
2022-07-31T06:20:17.034Z,17.00
2022-07-31T06:23:32.146Z,16.98
2022-07-31T06:26:48.197Z,17.05
2022-07-31T06:30:00.988Z,17.13
2022-07-31T06:33:16.689Z,17.21
2022-07-31T06:36:27.319Z,17.07
2022-07-31T06:39:55.453Z,16.96
2022-07-31T06:43:19.114Z,16.95
2022-07-31T06:46:49.771Z,16.99
2022-07-31T06:50:10.854Z,16.88
2022-07-31T06:53:26.981Z,16.89
2022-07-31T06:56:40.369Z,16.99
2022-07-31T06:59:52.867Z,17.04
2022-07-31T07:03:04.707Z,17.00
2022-07-31T07:06:16.498Z,16.98
2022-07-31T07:09:28.353Z,16.85
2022-07-31T07:12:40.396Z,16.81
2022-07-31T07:15:53.428Z,16.75
2022-07-31T07:19:07.406Z,16.68
2022-07-31T07:22:19.292Z,16.72
2022-07-31T07:25:33.757Z,16.78
2022-07-31T07:28:46.332Z,16.69
2022-07-31T07:32:00.537Z,16.64
2022-07-31T07:35:14.185Z,16.64
2022-07-31T07:38:28.052Z,16.54
2022-07-31T07:41:41.235Z,16.60
2022-07-31T07:44:53.344Z,16.68
2022-07-31T07:48:07.572Z,16.62
2022-07-31T07:51:21.870Z,16.61
2022-07-31T07:54:35.642Z,16.66
2022-07-31T07:57:56.602Z,16.63
2022-07-31T08:01:11.694Z,16.60
2022-07-31T08:04:25.031Z,16.52
2022-07-31T08:07:42.760Z,16.48
2022-07-31T08:10:56.193Z,16.36
2022-07-31T08:14:15.265Z,16.32
2022-07-31T08:17:45.439Z,16.32
2022-07-31T08:20:59.311Z,16.35
2022-07-31T08:24:13.084Z,16.33
2022-07-31T08:27:39.973Z,16.35
2022-07-31T08:30:42.949Z,16.24
2022-07-31T08:33:55.894Z,16.28
2022-07-31T08:37:52.467Z,16.23
2022-07-31T08:40:24.832Z,16.23
2022-07-31T08:44:01.926Z,16.26
2022-07-31T08:46:52.578Z,16.20
2022-07-31T08:50:06.312Z,16.10
2022-07-31T08:53:22.925Z,16.12
2022-07-31T08:56:41.800Z,16.03
2022-07-31T08:59:57.954Z,16.11
2022-07-31T09:03:11.182Z,16.13
2022-07-31T09:06:33.686Z,16.08
2022-07-31T09:09:51.514Z,16.07
2022-07-31T09:13:04.451Z,16.05
2022-07-31T09:16:16.534Z,16.13
2022-07-31T09:19:52.371Z,16.18
2022-07-31T09:23:14.841Z,16.22
2022-07-31T09:26:42.002Z,16.26
2022-07-31T09:29:55.703Z,16.21
2022-07-31T09:33:24.943Z,16.26
2022-07-31T09:36:54.475Z,16.36
2022-07-31T09:40:15.866Z,16.25
2022-07-31T09:43:48.423Z,16.36
2022-07-31T09:46:59.760Z,16.32
2022-07-31T09:50:26.593Z,16.30
2022-07-31T09:53:56.755Z,16.36
2022-07-31T09:57:38.799Z,16.29
2022-07-31T10:01:15.885Z,16.32
2022-07-31T10:04:44.687Z,16.32
2022-07-31T10:07:58.064Z,16.37
2022-07-31T10:11:16.849Z,16.32
2022-07-31T10:14:49.063Z,16.45
2022-07-31T10:18:02.493Z,16.43
2022-07-31T10:21:20.153Z,16.50
2022-07-31T10:24:37.377Z,16.44
2022-07-31T10:27:53.690Z,16.45
2022-07-31T10:31:06.629Z,16.51
2022-07-31T10:34:20.450Z,16.43
2022-07-31T10:37:59.887Z,16.37
2022-07-31T10:41:36.709Z,16.33
2022-07-31T10:44:56.045Z,16.27
2022-07-31T10:48:15.201Z,16.38
2022-07-31T10:51:32.334Z,16.54
2022-07-31T10:54:54.677Z,16.59
2022-07-31T10:58:25.051Z,16.56
2022-07-31T11:01:36.935Z,16.45
2022-07-31T11:04:57.524Z,16.44
2022-07-31T11:08:13.753Z,16.44
2022-07-31T11:11:44.192Z,16.45
2022-07-31T11:15:29.931Z,16.44
2022-07-31T11:19:09.734Z,16.45
2022-07-31T11:22:31.819Z,16.50
2022-07-31T11:25:41.439Z,16.51
2022-07-31T11:28:53.181Z,16.50
2022-07-31T11:32:24.797Z,16.41
2022-07-31T11:35:35.401Z,16.38
2022-07-31T11:38:49.859Z,16.43
2022-07-31T11:42:01.780Z,16.44
2022-07-31T11:45:16.781Z,16.41
2022-07-31T11:48:36.008Z,16.41
2022-07-31T11:51:45.845Z,16.27
2022-07-31T11:55:09.303Z,16.25
2022-07-31T11:58:23.650Z,16.24
2022-07-31T12:01:36.920Z,16.26
2022-07-31T12:04:51.097Z,16.34
2022-07-31T12:08:03.383Z,16.35
2022-07-31T12:11:17.093Z,16.37
2022-07-31T12:14:38.124Z,16.35
2022-07-31T12:17:50.759Z,16.39
2022-07-31T12:21:05.507Z,16.34
2022-07-31T12:24:20.710Z,16.39
2022-07-31T12:27:32.525Z,16.39
2022-07-31T12:30:44.785Z,16.36
2022-07-31T12:33:56.492Z,16.54
2022-07-31T12:37:12.181Z,16.55
2022-07-31T12:40:34.352Z,16.60
2022-07-31T12:43:51.820Z,16.61
2022-07-31T12:47:00.459Z,16.64
2022-07-31T12:50:13.567Z,16.67
2022-07-31T12:53:25.219Z,16.71
2022-07-31T12:56:39.598Z,16.75
2022-07-31T12:59:51.164Z,16.75
2022-07-31T13:03:03.588Z,16.79
2022-07-31T13:06:15.514Z,16.75
2022-07-31T13:09:27.367Z,16.77
2022-07-31T13:12:39.438Z,16.74
2022-07-31T13:15:51.807Z,16.58
2022-07-31T13:19:05.378Z,16.63
2022-07-31T13:22:17.612Z,16.66
2022-07-31T13:25:30.333Z,16.60
2022-07-31T13:28:41.942Z,16.49
2022-07-31T13:31:53.864Z,16.44
2022-07-31T13:35:25.403Z,16.40
2022-07-31T13:38:19.525Z,16.44
2022-07-31T13:41:34.026Z,16.36
2022-07-31T13:44:46.193Z,16.26
2022-07-31T13:48:00.509Z,16.23
2022-07-31T13:51:11.616Z,16.18
2022-07-31T13:54:23.334Z,16.13
2022-07-31T13:57:35.209Z,16.10
2022-07-31T14:00:46.775Z,16.14
2022-07-31T14:03:58.574Z,16.22
2022-07-31T14:07:12.849Z,16.22
2022-07-31T14:10:24.295Z,16.20
2022-07-31T14:13:42.389Z,16.21
2022-07-31T14:16:49.743Z,16.20
2022-07-31T14:20:01.490Z,16.22
2022-07-31T14:23:13.922Z,16.22
2022-07-31T14:26:25.650Z,16.25
2022-07-31T14:29:37.335Z,16.28
2022-07-31T14:32:48.884Z,16.21
2022-07-31T14:36:00.498Z,16.35
2022-07-31T14:39:12.148Z,16.34
2022-07-31T14:42:25.756Z,16.37
2022-07-31T14:45:51.199Z,16.41
2022-07-31T14:48:52.407Z,16.47
2022-07-31T14:52:04.229Z,16.43
2022-07-31T14:55:17.529Z,16.50
2022-07-31T14:58:30.031Z,16.51
2022-07-31T15:01:41.823Z,16.39
2022-07-31T15:04:53.539Z,16.46
2022-07-31T15:08:05.283Z,16.44
2022-07-31T15:11:17.002Z,16.43
2022-07-31T15:14:28.575Z,16.43
2022-07-31T15:17:40.289Z,16.39
2022-07-31T15:20:51.879Z,16.44
2022-07-31T15:24:03.642Z,16.44
2022-07-31T15:27:15.391Z,16.40
2022-07-31T15:30:27.072Z,16.40
2022-07-31T15:33:39.182Z,16.36
2022-07-31T15:36:52.983Z,16.37
2022-07-31T15:40:04.606Z,16.35
2022-07-31T15:43:16.235Z,16.39
2022-07-31T15:46:27.842Z,16.42
2022-07-31T15:49:44.160Z,16.39
2022-07-31T15:52:53.915Z,16.44
2022-07-31T15:56:08.277Z,16.42
2022-07-31T15:59:20.017Z,16.47
2022-07-31T16:02:32.282Z,16.48
2022-07-31T16:05:44.171Z,16.48
2022-07-31T16:08:58.292Z,16.51
2022-07-31T16:12:12.243Z,16.54
2022-07-31T16:15:24.297Z,16.54
2022-07-31T16:18:38.385Z,16.53
2022-07-31T16:21:51.130Z,16.53
2022-07-31T16:25:02.950Z,16.53
2022-07-31T16:28:15.107Z,16.55
2022-07-31T16:31:29.771Z,16.51
2022-07-31T16:34:40.935Z,16.53
2022-07-31T16:54:13.550Z,16.44
2022-07-31T16:57:19.327Z,16.48
2022-07-31T17:09:32.937Z,16.45
2022-07-31T17:18:52.597Z,16.41
2022-07-31T17:22:16.087Z,16.37
2022-07-31T17:25:35.201Z,16.32
2022-07-31T18:22:22.221Z,16.31
2022-07-31T18:25:36.379Z,16.24
2022-07-31T18:28:48.287Z,16.30
2022-07-31T18:32:04.775Z,16.33
2022-07-31T18:35:17.966Z,16.35
2022-07-31T18:38:32.258Z,16.39
2022-07-31T18:44:48.447Z,16.40
2022-07-31T18:48:12.724Z,16.40
2022-07-31T18:51:36.555Z,16.40
2022-07-31T18:54:52.747Z,16.40
2022-07-31T18:58:03.239Z,16.44
2022-07-31T19:01:35.441Z,16.45
2022-07-31T19:04:59.636Z,16.45
2022-07-31T19:08:32.302Z,16.45
2022-07-31T19:15:27.572Z,16.52
2022-07-31T19:18:55.069Z,16.51
2022-07-31T19:22:15.074Z,16.55
2022-07-31T19:25:27.449Z,16.56
2022-07-31T19:28:41.959Z,16.59
2022-07-31T19:31:54.591Z,16.62
2022-07-31T19:35:09.290Z,16.60
2022-07-31T19:38:21.612Z,16.63
2022-07-31T19:41:41.174Z,16.62
2022-07-31T19:44:54.932Z,16.59
2022-07-31T19:48:09.296Z,16.64
2022-07-31T19:51:22.673Z,16.64
2022-07-31T19:54:35.696Z,16.64
2022-07-31T19:57:48.864Z,16.63
2022-07-31T20:01:01.061Z,16.62
2022-07-31T20:04:14.342Z,16.63
2022-07-31T20:07:29.753Z,16.62
2022-07-31T20:10:40.390Z,16.64
2022-07-31T20:13:52.790Z,16.65
2022-07-31T20:17:04.893Z,16.68
2022-07-31T20:20:18.247Z,16.66
2022-07-31T20:23:31.162Z,16.62
2022-07-31T20:26:43.093Z,16.56
2022-07-31T20:33:35.474Z,16.63
2022-07-31T20:36:47.293Z,16.64
2022-07-31T20:40:02.287Z,16.68
2022-07-31T20:43:16.153Z,16.68
2022-07-31T20:46:28.075Z,16.69
2022-07-31T20:49:40.152Z,16.68
2022-07-31T20:52:52.016Z,16.70
2022-07-31T20:56:05.894Z,16.68
2022-07-31T20:59:18.425Z,16.71
2022-07-31T21:02:31.407Z,16.71
2022-07-31T21:05:43.446Z,16.69
2022-07-31T21:08:55.745Z,16.70
2022-07-31T21:12:08.587Z,16.67
2022-07-31T21:15:42.608Z,16.67
2022-07-31T21:18:41.211Z,16.66
2022-07-31T21:21:51.203Z,16.65
2022-07-31T21:25:05.572Z,16.66
2022-07-31T21:28:18.456Z,16.65
2022-07-31T21:31:31.261Z,16.63
2022-07-31T21:34:44.504Z,16.64
2022-07-31T21:37:58.060Z,16.63
2022-07-31T21:41:11.551Z,16.62
2022-07-31T21:44:24.291Z,16.62
2022-07-31T21:47:53.065Z,16.63
2022-07-31T21:50:56.546Z,16.62
2022-07-31T21:54:08.438Z,16.60
2022-07-31T21:57:20.160Z,16.62
2022-07-31T22:00:32.194Z,16.62
2022-07-31T22:03:44.000Z,16.64
2022-07-31T22:07:09.397Z,16.61
2022-07-31T22:10:23.491Z,16.65
2022-07-31T22:13:35.429Z,16.60
2022-07-31T22:16:47.255Z,16.58
2022-07-31T22:20:02.531Z,16.57
2022-07-31T22:23:18.276Z,16.57
2022-07-31T22:26:30.842Z,16.54
2022-07-31T22:29:43.091Z,16.54
2022-07-31T22:32:55.751Z,16.54
2022-07-31T22:36:10.430Z,16.53
2022-07-31T22:39:23.696Z,16.54
2022-07-31T22:42:35.949Z,16.53
2022-07-31T22:45:49.008Z,16.54
2022-07-31T22:49:01.773Z,16.54
2022-07-31T22:52:14.111Z,16.52
2022-07-31T22:55:25.958Z,16.52
2022-07-31T22:58:37.596Z,16.50
2022-07-31T23:01:49.297Z,16.52
2022-07-31T23:05:00.887Z,16.50
2022-07-31T23:08:12.830Z,16.52
2022-07-31T23:11:24.693Z,16.47
2022-07-31T23:14:36.730Z,16.46
2022-07-31T23:17:48.380Z,16.46
2022-07-31T23:21:00.137Z,16.44
2022-07-31T23:24:12.948Z,16.44
2022-07-31T23:27:24.672Z,16.40
2022-07-31T23:30:36.470Z,16.39
2022-07-31T23:33:48.780Z,16.38
2022-07-31T23:37:00.437Z,16.38
2022-07-31T23:40:15.547Z,16.37
2022-07-31T23:43:27.473Z,16.36
2022-07-31T23:46:40.542Z,16.34
2022-07-31T23:49:52.597Z,16.36
2022-07-31T23:53:04.200Z,16.36
2022-07-31T23:56:19.122Z,16.38
2022-07-31T23:59:29.517Z,16.35
